sensor_id;sensor_type;location;lat;lon;timestamp;pressure;altitude;pressure_sealevel;temperature;humidity
9523;BME280;63165;43.016;25.784;2023-06-26T00:00:15;99600.28;;;21.52;100.00
9523;BME280;63165;43.016;25.784;2023-06-26T00:02:42;99557.97;;;20.96;100.00
9523;BME280;63165;43.016;25.784;2023-06-26T00:05:10;99620.16;;;21.33;100.00
9523;BME280;63165;43.016;25.784;2023-06-26T00:07:37;99606.91;;;21.46;100.00
9523;BME280;63165;43.016;25.784;2023-06-26T00:10:06;99532.75;;;21.02;100.00
9523;BME280;63165;43.016;25.784;2023-06-26T00:12:35;99644.47;;;21.42;100.00
9523;BME280;63165;43.016;25.784;2023-06-26T00:15:02;99567.16;;;21.18;100.00
9523;BME280;63165;43.016;25.784;2023-06-26T00:17:30;99598.47;;;21.40;100.00
9523;BME280;63165;43.016;25.784;2023-06-26T00:20:03;99615.38;;;21.39;100.00
9523;BME280;63165;43.016;25.784;2023-06-26T00:22:31;99596.38;;;21.05;100.00
9523;BME280;63165;43.016;25.784;2023-06-26T00:24:58;99543.09;;;21.06;100.00
9523;BME280;63165;43.016;25.784;2023-06-26T00:27:26;99509.44;;;20.80;100.00
9523;BME280;63165;43.016;25.784;2023-06-26T00:29:55;99549.34;;;21.05;100.00
9523;BME280;63165;43.016;25.784;2023-06-26T00:32:22;99593.53;;;21.33;100.00
9523;BME280;63165;43.016;25.784;2023-06-26T00:34:50;99578.53;;;21.20;100.00
9523;BME280;63165;43.016;25.784;2023-06-26T00:37:18;99591.41;;;21.26;100.00
9523;BME280;63165;43.016;25.784;2023-06-26T00:39:47;99539.00;;;20.75;100.00
9523;BME280;63165;43.016;25.784;2023-06-26T00:42:14;99519.44;;;20.76;100.00
9523;BME280;63165;43.016;25.784;2023-06-26T00:44:41;99516.69;;;20.23;100.00
9523;BME280;63165;43.016;25.784;2023-06-26T00:47:14;99593.00;;;21.16;100.00
9523;BME280;63165;43.016;25.784;2023-06-26T00:49:41;99579.38;;;21.07;100.00
9523;BME280;63165;43.016;25.784;2023-06-26T00:52:09;99600.75;;;21.19;100.00
9523;BME280;63165;43.016;25.784;2023-06-26T00:54:36;99592.78;;;21.19;100.00
9523;BME280;63165;43.016;25.784;2023-06-26T00:57:04;99603.09;;;21.10;100.00
9523;BME280;63165;43.016;25.784;2023-06-26T00:59:31;99601.84;;;21.16;100.00
9523;BME280;63165;43.016;25.784;2023-06-26T01:02:00;99599.28;;;21.14;100.00
9523;BME280;63165;43.016;25.784;2023-06-26T01:04:30;99586.44;;;20.81;100.00
9523;BME280;63165;43.016;25.784;2023-06-26T01:06:59;99604.78;;;21.11;100.00
9523;BME280;63165;43.016;25.784;2023-06-26T01:09:27;99399.22;;;19.92;100.00
9523;BME280;63165;43.016;25.784;2023-06-26T01:11:54;99609.06;;;21.14;100.00
9523;BME280;63165;43.016;25.784;2023-06-26T01:14:23;99528.13;;;20.65;100.00
9523;BME280;63165;43.016;25.784;2023-06-26T01:16:51;99604.19;;;21.08;100.00
9523;BME280;63165;43.016;25.784;2023-06-26T01:19:20;99616.81;;;21.04;100.00
9523;BME280;63165;43.016;25.784;2023-06-26T01:21:58;99597.34;;;21.04;100.00
9523;BME280;63165;43.016;25.784;2023-06-26T01:24:33;99597.47;;;21.02;100.00
9523;BME280;63165;43.016;25.784;2023-06-26T01:27:04;99586.66;;;20.91;100.00
9523;BME280;63165;43.016;25.784;2023-06-26T01:29:32;99603.06;;;20.98;100.00
9523;BME280;63165;43.016;25.784;2023-06-26T01:32:01;99535.13;;;20.12;100.00
9523;BME280;63165;43.016;25.784;2023-06-26T01:34:29;99614.47;;;21.00;100.00
9523;BME280;63165;43.016;25.784;2023-06-26T01:36:56;99649.88;;;20.87;100.00
9523;BME280;63165;43.016;25.784;2023-06-26T01:39:24;99603.66;;;20.75;100.00
9523;BME280;63165;43.016;25.784;2023-06-26T01:41:51;99502.69;;;20.34;100.00
9523;BME280;63165;43.016;25.784;2023-06-26T01:44:26;99615.44;;;20.99;100.00
9523;BME280;63165;43.016;25.784;2023-06-26T01:47:00;99590.59;;;20.85;100.00
9523;BME280;63165;43.016;25.784;2023-06-26T01:49:34;99607.09;;;20.90;100.00
9523;BME280;63165;43.016;25.784;2023-06-26T01:52:11;99614.56;;;20.98;100.00
9523;BME280;63165;43.016;25.784;2023-06-26T01:54:49;99625.81;;;20.62;100.00
9523;BME280;63165;43.016;25.784;2023-06-26T01:57:20;99614.56;;;20.98;100.00
9523;BME280;63165;43.016;25.784;2023-06-26T01:59:51;99577.28;;;20.72;100.00
9523;BME280;63165;43.016;25.784;2023-06-26T02:02:19;99586.28;;;20.70;100.00
9523;BME280;63165;43.016;25.784;2023-06-26T02:04:46;99617.22;;;20.98;100.00
9523;BME280;63165;43.016;25.784;2023-06-26T02:07:15;99504.63;;;20.32;100.00
9523;BME280;63165;43.016;25.784;2023-06-26T02:09:42;99419.44;;;19.66;100.00
9523;BME280;63165;43.016;25.784;2023-06-26T02:12:10;99608.94;;;21.03;100.00
9523;BME280;63165;43.016;25.784;2023-06-26T02:14:37;99631.81;;;21.05;100.00
9523;BME280;63165;43.016;25.784;2023-06-26T02:17:06;99621.31;;;21.17;100.00
9523;BME280;63165;43.016;25.784;2023-06-26T02:19:34;99608.66;;;21.20;100.00
9523;BME280;63165;43.016;25.784;2023-06-26T02:22:02;99587.78;;;21.14;100.00
9523;BME280;63165;43.016;25.784;2023-06-26T02:24:29;99616.84;;;21.30;100.00
9523;BME280;63165;43.016;25.784;2023-06-26T02:26:56;99533.22;;;20.68;100.00
9523;BME280;63165;43.016;25.784;2023-06-26T02:29:24;99609.41;;;21.35;100.00
9523;BME280;63165;43.016;25.784;2023-06-26T02:31:51;99621.44;;;21.28;100.00
9523;BME280;63165;43.016;25.784;2023-06-26T02:34:20;99638.47;;;21.25;100.00
9523;BME280;63165;43.016;25.784;2023-06-26T02:36:47;99614.50;;;21.25;100.00
9523;BME280;63165;43.016;25.784;2023-06-26T02:39:14;99619.00;;;21.25;100.00
9523;BME280;63165;43.016;25.784;2023-06-26T02:41:42;99603.84;;;21.12;100.00
9523;BME280;63165;43.016;25.784;2023-06-26T02:44:09;99488.91;;;20.42;100.00
9523;BME280;63165;43.016;25.784;2023-06-26T02:46:38;99570.31;;;20.97;100.00
9523;BME280;63165;43.016;25.784;2023-06-26T02:49:05;99610.66;;;21.17;100.00
9523;BME280;63165;43.016;25.784;2023-06-26T02:51:34;99610.75;;;21.15;100.00
9523;BME280;63165;43.016;25.784;2023-06-26T02:54:02;99615.97;;;21.17;100.00
9523;BME280;63165;43.016;25.784;2023-06-26T02:56:29;99579.03;;;20.99;100.00
9523;BME280;63165;43.016;25.784;2023-06-26T02:58:57;99458.94;;;20.12;100.00
9523;BME280;63165;43.016;25.784;2023-06-26T03:01:25;99487.38;;;19.97;100.00
9523;BME280;63165;43.016;25.784;2023-06-26T03:03:52;99626.84;;;21.13;100.00
9523;BME280;63165;43.016;25.784;2023-06-26T03:06:19;99571.97;;;20.85;100.00
9523;BME280;63165;43.016;25.784;2023-06-26T03:08:48;99608.44;;;21.10;100.00
9523;BME280;63165;43.016;25.784;2023-06-26T03:11:15;99614.59;;;21.11;100.00
9523;BME280;63165;43.016;25.784;2023-06-26T03:13:42;99601.50;;;20.68;100.00
9523;BME280;63165;43.016;25.784;2023-06-26T03:16:10;99611.94;;;21.11;100.00
9523;BME280;63165;43.016;25.784;2023-06-26T03:18:37;99601.59;;;20.66;100.00
9523;BME280;63165;43.016;25.784;2023-06-26T03:21:04;99467.50;;;19.90;100.00
9523;BME280;63165;43.016;25.784;2023-06-26T03:23:32;99572.81;;;20.59;100.00
9523;BME280;63165;43.016;25.784;2023-06-26T03:26:00;99622.09;;;20.91;100.00
9523;BME280;63165;43.016;25.784;2023-06-26T03:28:28;99573.66;;;20.73;100.00
9523;BME280;63165;43.016;25.784;2023-06-26T03:30:56;99617.34;;;21.09;100.00
9523;BME280;63165;43.016;25.784;2023-06-26T03:33:24;99603.16;;;20.96;100.00
9523;BME280;63165;43.016;25.784;2023-06-26T03:35:51;99609.25;;;20.98;100.00
9523;BME280;63165;43.016;25.784;2023-06-26T03:38:19;99615.16;;;20.89;100.00
9523;BME280;63165;43.016;25.784;2023-06-26T03:40:46;99526.56;;;20.21;100.00
9523;BME280;63165;43.016;25.784;2023-06-26T03:43:15;99594.50;;;20.80;100.00
9523;BME280;63165;43.016;25.784;2023-06-26T03:45:42;99601.06;;;20.61;100.00
9523;BME280;63165;43.016;25.784;2023-06-26T03:48:09;99625.78;;;21.16;100.00
9523;BME280;63165;43.016;25.784;2023-06-26T03:50:37;99565.59;;;20.75;100.00
9523;BME280;63165;43.016;25.784;2023-06-26T03:53:04;99596.69;;;21.00;100.00
9523;BME280;63165;43.016;25.784;2023-06-26T03:55:31;99620.25;;;21.19;100.00
9523;BME280;63165;43.016;25.784;2023-06-26T03:58:00;99638.25;;;21.16;100.00
9523;BME280;63165;43.016;25.784;2023-06-26T04:00:29;99620.28;;;20.92;100.00
9523;BME280;63165;43.016;25.784;2023-06-26T04:02:56;99622.03;;;21.19;100.00
9523;BME280;63165;43.016;25.784;2023-06-26T04:05:24;99628.34;;;21.18;100.00
9523;BME280;63165;43.016;25.784;2023-06-26T04:07:51;99649.91;;;21.13;100.00
9523;BME280;63165;43.016;25.784;2023-06-26T04:10:19;99528.00;;;20.12;100.00
9523;BME280;63165;43.016;25.784;2023-06-26T04:12:46;99623.63;;;21.08;100.00
9523;BME280;63165;43.016;25.784;2023-06-26T04:15:14;99625.56;;;21.06;100.00
9523;BME280;63165;43.016;25.784;2023-06-26T04:17:44;99478.09;;;20.17;100.00
9523;BME280;63165;43.016;25.784;2023-06-26T04:20:13;99600.25;;;20.73;100.00
9523;BME280;63165;43.016;25.784;2023-06-26T04:22:41;99630.66;;;21.09;100.00
9523;BME280;63165;43.016;25.784;2023-06-26T04:25:09;99583.03;;;20.79;100.00
9523;BME280;63165;43.016;25.784;2023-06-26T04:27:37;99581.03;;;20.83;100.00
9523;BME280;63165;43.016;25.784;2023-06-26T04:30:06;99610.75;;;21.02;100.00
9523;BME280;63165;43.016;25.784;2023-06-26T04:32:33;99646.41;;;21.12;100.00
9523;BME280;63165;43.016;25.784;2023-06-26T04:35:02;99629.50;;;21.13;100.00
9523;BME280;63165;43.016;25.784;2023-06-26T04:37:30;99625.88;;;21.14;100.00
9523;BME280;63165;43.016;25.784;2023-06-26T04:39:57;99632.91;;;21.16;100.00
9523;BME280;63165;43.016;25.784;2023-06-26T04:42:25;99564.50;;;20.23;100.00
9523;BME280;63165;43.016;25.784;2023-06-26T04:44:52;99636.31;;;21.18;100.00
9523;BME280;63165;43.016;25.784;2023-06-26T04:47:19;99635.34;;;21.19;100.00
9523;BME280;63165;43.016;25.784;2023-06-26T04:49:46;99646.88;;;20.92;100.00
9523;BME280;63165;43.016;25.784;2023-06-26T04:52:15;99636.31;;;21.18;100.00
9523;BME280;63165;43.016;25.784;2023-06-26T04:54:42;99590.09;;;20.93;100.00
9523;BME280;63165;43.016;25.784;2023-06-26T04:57:10;99515.78;;;20.10;100.00
9523;BME280;63165;43.016;25.784;2023-06-26T04:59:38;99633.16;;;21.25;100.00
9523;BME280;63165;43.016;25.784;2023-06-26T05:02:07;99612.91;;;21.10;100.00
9523;BME280;63165;43.016;25.784;2023-06-26T05:04:35;99643.34;;;21.19;100.00
9523;BME280;63165;43.016;25.784;2023-06-26T05:07:03;99647.09;;;21.29;100.00
9523;BME280;63165;43.016;25.784;2023-06-26T05:09:32;99648.78;;;21.30;100.00
9523;BME280;63165;43.016;25.784;2023-06-26T05:12:00;99655.41;;;21.37;100.00
9523;BME280;63165;43.016;25.784;2023-06-26T05:14:29;99580.31;;;20.93;100.00
9523;BME280;63165;43.016;25.784;2023-06-26T05:16:56;99662.53;;;21.37;100.00
9523;BME280;63165;43.016;25.784;2023-06-26T05:19:23;99648.00;;;21.02;100.00
9523;BME280;63165;43.016;25.784;2023-06-26T05:21:53;99671.47;;;21.36;100.00
9523;BME280;63165;43.016;25.784;2023-06-26T05:24:23;99657.84;;;21.27;100.00
9523;BME280;63165;43.016;25.784;2023-06-26T05:26:53;99489.19;;;20.24;100.00
9523;BME280;63165;43.016;25.784;2023-06-26T05:29:21;99676.69;;;21.37;100.00
9523;BME280;63165;43.016;25.784;2023-06-26T05:31:49;99531.91;;;20.07;100.00
9523;BME280;63165;43.016;25.784;2023-06-26T05:34:19;99668.63;;;21.11;100.00
9523;BME280;63165;43.016;25.784;2023-06-26T05:36:51;99573.56;;;20.75;100.00
9523;BME280;63165;43.016;25.784;2023-06-26T05:39:19;99648.09;;;21.01;100.00
9523;BME280;63165;43.016;25.784;2023-06-26T05:41:47;99648.88;;;21.16;100.00
9523;BME280;63165;43.016;25.784;2023-06-26T05:44:15;99687.03;;;21.42;100.00
9523;BME280;63165;43.016;25.784;2023-06-26T05:46:43;99681.81;;;21.40;100.00
9523;BME280;63165;43.016;25.784;2023-06-26T05:49:11;99690.00;;;21.37;100.00
9523;BME280;63165;43.016;25.784;2023-06-26T05:51:39;99688.50;;;21.33;100.00
9523;BME280;63165;43.016;25.784;2023-06-26T05:54:07;99558.56;;;20.47;100.00
9523;BME280;63165;43.016;25.784;2023-06-26T05:56:35;99686.13;;;21.28;100.00
9523;BME280;63165;43.016;25.784;2023-06-26T05:59:03;99647.13;;;21.02;100.00
9523;BME280;63165;43.016;25.784;2023-06-26T06:01:33;99685.50;;;21.25;100.00
9523;BME280;63165;43.016;25.784;2023-06-26T06:04:01;99673.91;;;21.26;100.00
9523;BME280;63165;43.016;25.784;2023-06-26T06:06:28;99578.25;;;20.30;100.00
9523;BME280;63165;43.016;25.784;2023-06-26T06:08:56;99640.78;;;20.77;100.00
9523;BME280;63165;43.016;25.784;2023-06-26T06:11:23;99694.75;;;21.32;100.00
9523;BME280;63165;43.016;25.784;2023-06-26T06:14:06;99692.22;;;21.30;100.00
9523;BME280;63165;43.016;25.784;2023-06-26T06:16:39;99693.06;;;21.31;100.00
9523;BME280;63165;43.016;25.784;2023-06-26T06:19:06;99669.66;;;21.23;100.00
9523;BME280;63165;43.016;25.784;2023-06-26T06:21:36;99699.34;;;21.30;100.00
9523;BME280;63165;43.016;25.784;2023-06-26T06:24:04;99678.88;;;21.18;100.00
9523;BME280;63165;43.016;25.784;2023-06-26T06:26:51;99698.19;;;21.34;100.00
9523;BME280;63165;43.016;25.784;2023-06-26T06:33:33;99693.19;;;21.42;100.00
9523;BME280;63165;43.016;25.784;2023-06-26T06:36:00;99696.16;;;21.38;100.00
9523;BME280;63165;43.016;25.784;2023-06-26T06:38:27;99652.47;;;21.14;100.00
9523;BME280;63165;43.016;25.784;2023-06-26T06:40:55;99559.19;;;20.78;100.00
9523;BME280;63165;43.016;25.784;2023-06-26T06:43:23;99698.16;;;21.61;100.00
9523;BME280;63165;43.016;25.784;2023-06-26T06:45:50;99577.91;;;20.49;100.00
9523;BME280;63165;43.016;25.784;2023-06-26T06:48:18;99702.00;;;21.70;100.00
9523;BME280;63165;43.016;25.784;2023-06-26T06:50:47;99703.59;;;21.73;100.00
9523;BME280;63165;43.016;25.784;2023-06-26T06:53:14;99696.59;;;21.71;100.00
9523;BME280;63165;43.016;25.784;2023-06-26T06:55:41;99701.91;;;21.71;100.00
9523;BME280;63165;43.016;25.784;2023-06-26T06:58:09;99706.25;;;21.73;100.00
9523;BME280;63165;43.016;25.784;2023-06-26T07:00:36;99542.91;;;20.42;100.00
9523;BME280;63165;43.016;25.784;2023-06-26T07:03:03;99651.06;;;21.49;100.00
9523;BME280;63165;43.016;25.784;2023-06-26T07:05:31;99703.31;;;21.77;100.00
9523;BME280;63165;43.016;25.784;2023-06-26T07:07:59;99702.03;;;21.83;100.00
9523;BME280;63165;43.016;25.784;2023-06-26T07:10:27;99703.19;;;21.91;100.00
9523;BME280;63165;43.016;25.784;2023-06-26T07:12:54;99705.44;;;21.98;100.00
9523;BME280;63165;43.016;25.784;2023-06-26T07:15:21;99703.72;;;21.97;100.00
9523;BME280;63165;43.016;25.784;2023-06-26T07:17:48;99701.69;;;22.00;100.00
9523;BME280;63165;43.016;25.784;2023-06-26T07:20:16;99706.28;;;22.11;100.00
9523;BME280;63165;43.016;25.784;2023-06-26T07:22:43;99704.00;;;22.18;100.00
9523;BME280;63165;43.016;25.784;2023-06-26T07:25:13;99692.97;;;21.85;100.00
9523;BME280;63165;43.016;25.784;2023-06-26T07:27:40;99699.03;;;22.00;100.00
9523;BME280;63165;43.016;25.784;2023-06-26T07:30:09;99671.94;;;22.06;100.00
9523;BME280;63165;43.016;25.784;2023-06-26T07:32:37;99722.16;;;22.38;100.00
9523;BME280;63165;43.016;25.784;2023-06-26T07:35:06;99683.44;;;22.07;100.00
9523;BME280;63165;43.016;25.784;2023-06-26T07:37:33;99663.41;;;22.14;100.00
9523;BME280;63165;43.016;25.784;2023-06-26T07:40:01;99753.16;;;22.52;100.00
9523;BME280;63165;43.016;25.784;2023-06-26T07:42:31;99719.09;;;22.32;100.00
9523;BME280;63165;43.016;25.784;2023-06-26T07:44:58;99701.34;;;22.43;100.00
9523;BME280;63165;43.016;25.784;2023-06-26T07:47:25;99699.44;;;22.33;100.00
9523;BME280;63165;43.016;25.784;2023-06-26T07:49:52;99691.97;;;22.25;100.00
9523;BME280;63165;43.016;25.784;2023-06-26T07:52:20;99696.19;;;22.53;100.00
9523;BME280;63165;43.016;25.784;2023-06-26T07:54:47;99736.13;;;22.79;100.00
9523;BME280;63165;43.016;25.784;2023-06-26T07:57:15;99727.94;;;22.82;100.00
9523;BME280;63165;43.016;25.784;2023-06-26T07:59:44;99729.81;;;22.80;100.00
9523;BME280;63165;43.016;25.784;2023-06-26T08:02:11;99735.41;;;22.77;100.00
9523;BME280;63165;43.016;25.784;2023-06-26T08:04:38;99738.19;;;22.75;100.00
9523;BME280;63165;43.016;25.784;2023-06-26T08:07:06;99739.25;;;22.73;100.00
9523;BME280;63165;43.016;25.784;2023-06-26T08:09:33;99739.25;;;22.73;100.00
9523;BME280;63165;43.016;25.784;2023-06-26T08:12:00;99707.59;;;22.55;100.00
9523;BME280;63165;43.016;25.784;2023-06-26T08:14:28;99715.78;;;22.65;100.00
9523;BME280;63165;43.016;25.784;2023-06-26T08:16:57;99731.13;;;22.74;100.00
9523;BME280;63165;43.016;25.784;2023-06-26T08:19:25;99641.44;;;22.23;100.00
9523;BME280;63165;43.016;25.784;2023-06-26T08:21:52;99731.31;;;22.84;100.00
9523;BME280;63165;43.016;25.784;2023-06-26T08:24:20;99729.03;;;22.91;100.00
9523;BME280;63165;43.016;25.784;2023-06-26T08:26:48;99729.56;;;22.96;100.00
9523;BME280;63165;43.016;25.784;2023-06-26T08:29:15;99732.13;;;22.97;100.00
9523;BME280;63165;43.016;25.784;2023-06-26T08:31:43;99730.75;;;23.04;100.00
9523;BME280;63165;43.016;25.784;2023-06-26T08:34:11;99740.84;;;23.12;100.00
9523;BME280;63165;43.016;25.784;2023-06-26T08:36:39;99726.09;;;23.19;100.00
9523;BME280;63165;43.016;25.784;2023-06-26T08:39:06;99721.53;;;23.33;100.00
9523;BME280;63165;43.016;25.784;2023-06-26T08:41:34;99710.81;;;23.21;100.00
9523;BME280;63165;43.016;25.784;2023-06-26T08:44:02;99622.34;;;22.91;100.00
9523;BME280;63165;43.016;25.784;2023-06-26T08:46:30;99639.81;;;23.19;100.00
9523;BME280;63165;43.016;25.784;2023-06-26T08:49:01;99692.84;;;23.48;100.00
9523;BME280;63165;43.016;25.784;2023-06-26T08:51:32;99684.94;;;23.46;100.00
9523;BME280;63165;43.016;25.784;2023-06-26T08:54:01;99716.72;;;23.84;99.82
9523;BME280;63165;43.016;25.784;2023-06-26T08:56:35;99737.56;;;23.68;100.00
9523;BME280;63165;43.016;25.784;2023-06-26T08:59:03;99721.50;;;24.03;100.00
9523;BME280;63165;43.016;25.784;2023-06-26T09:01:31;99722.38;;;24.15;98.32
9523;BME280;63165;43.016;25.784;2023-06-26T09:03:59;99691.25;;;24.03;95.18
9523;BME280;63165;43.016;25.784;2023-06-26T09:06:37;99520.91;;;23.03;93.70
9523;BME280;63165;43.016;25.784;2023-06-26T09:09:21;99728.81;;;24.35;95.09
9523;BME280;63165;43.016;25.784;2023-06-26T09:11:53;99741.69;;;24.30;96.71
9523;BME280;63165;43.016;25.784;2023-06-26T09:14:21;99719.59;;;24.62;98.98
9523;BME280;63165;43.016;25.784;2023-06-26T09:16:48;99713.97;;;24.76;97.87
9523;BME280;63165;43.016;25.784;2023-06-26T09:19:16;99696.59;;;24.59;98.33
9523;BME280;63165;43.016;25.784;2023-06-26T09:21:45;99718.03;;;25.03;94.82
9523;BME280;63165;43.016;25.784;2023-06-26T09:24:16;99694.66;;;25.05;93.23
9523;BME280;63165;43.016;25.784;2023-06-26T09:26:43;99603.03;;;24.26;90.15
9523;BME280;63165;43.016;25.784;2023-06-26T09:29:11;99697.16;;;25.18;89.00
9523;BME280;63165;43.016;25.784;2023-06-26T09:31:40;99661.47;;;24.96;86.79
9523;BME280;63165;43.016;25.784;2023-06-26T09:34:09;99658.34;;;24.91;89.88
9523;BME280;63165;43.016;25.784;2023-06-26T09:36:36;99699.84;;;25.50;88.03
9523;BME280;63165;43.016;25.784;2023-06-26T09:39:06;99705.06;;;25.73;88.34
9523;BME280;63165;43.016;25.784;2023-06-26T09:41:36;99680.06;;;25.63;86.17
9523;BME280;63165;43.016;25.784;2023-06-26T09:44:05;99668.03;;;25.57;84.83
9523;BME280;63165;43.016;25.784;2023-06-26T09:46:33;99700.28;;;26.19;83.83
9523;BME280;63165;43.016;25.784;2023-06-26T09:49:05;99639.72;;;25.85;82.43
9523;BME280;63165;43.016;25.784;2023-06-26T09:51:33;99647.81;;;25.95;82.31
9523;BME280;63165;43.016;25.784;2023-06-26T09:54:01;99689.47;;;26.40;79.98
9523;BME280;63165;43.016;25.784;2023-06-26T09:56:31;99674.66;;;26.36;76.94
9523;BME280;63165;43.016;25.784;2023-06-26T09:59:02;99676.88;;;26.30;73.48
9523;BME280;63165;43.016;25.784;2023-06-26T10:01:30;99676.16;;;26.19;75.57
9523;BME280;63165;43.016;25.784;2023-06-26T10:03:59;99705.25;;;26.33;76.25
9523;BME280;63165;43.016;25.784;2023-06-26T10:06:28;99596.13;;;25.62;75.80
9523;BME280;63165;43.016;25.784;2023-06-26T10:09:00;99706.41;;;26.40;77.43
9523;BME280;63165;43.016;25.784;2023-06-26T10:11:35;99665.94;;;26.12;76.25
9523;BME280;63165;43.016;25.784;2023-06-26T10:14:04;99695.50;;;26.63;77.58
9523;BME280;63165;43.016;25.784;2023-06-26T10:16:35;99682.53;;;26.68;74.28
9523;BME280;63165;43.016;25.784;2023-06-26T10:19:06;99674.34;;;26.69;75.82
9523;BME280;63165;43.016;25.784;2023-06-26T10:21:38;99649.75;;;26.64;74.67
9523;BME280;63165;43.016;25.784;2023-06-26T10:24:06;99662.78;;;26.88;74.70
9523;BME280;63165;43.016;25.784;2023-06-26T10:26:41;99673.09;;;27.13;75.84
9523;BME280;63165;43.016;25.784;2023-06-26T10:29:09;99654.28;;;26.73;74.81
9523;BME280;63165;43.016;25.784;2023-06-26T10:31:38;99550.00;;;26.59;73.27
9523;BME280;63165;43.016;25.784;2023-06-26T10:34:07;99553.72;;;26.78;73.48
9523;BME280;63165;43.016;25.784;2023-06-26T10:36:35;99669.13;;;27.65;71.82
9523;BME280;63165;43.016;25.784;2023-06-26T10:39:04;99647.06;;;27.62;72.98
9523;BME280;63165;43.016;25.784;2023-06-26T10:41:38;99578.41;;;27.30;69.23
9523;BME280;63165;43.016;25.784;2023-06-26T10:44:09;99650.22;;;27.85;67.09
9523;BME280;63165;43.016;25.784;2023-06-26T10:46:50;99657.03;;;27.79;67.16
9523;BME280;63165;43.016;25.784;2023-06-26T10:49:18;99665.38;;;27.86;66.03
9523;BME280;63165;43.016;25.784;2023-06-26T10:51:47;99659.16;;;27.85;67.24
9523;BME280;63165;43.016;25.784;2023-06-26T10:54:16;99607.38;;;27.36;65.44
9523;BME280;63165;43.016;25.784;2023-06-26T10:56:46;99656.50;;;27.76;66.67
9523;BME280;63165;43.016;25.784;2023-06-26T10:59:16;99646.75;;;27.75;66.17
9523;BME280;63165;43.016;25.784;2023-06-26T11:01:44;99616.94;;;27.58;66.21
9523;BME280;63165;43.016;25.784;2023-06-26T11:04:13;99646.59;;;27.76;66.27
9523;BME280;63165;43.016;25.784;2023-06-26T11:06:45;99616.09;;;27.58;66.69
9523;BME280;63165;43.016;25.784;2023-06-26T11:09:17;99634.09;;;27.85;68.81
9523;BME280;63165;43.016;25.784;2023-06-26T11:12:01;99618.84;;;27.85;68.02
9523;BME280;63165;43.016;25.784;2023-06-26T11:14:32;99632.34;;;28.13;68.00
9523;BME280;63165;43.016;25.784;2023-06-26T11:16:59;99627.47;;;28.26;68.43
9523;BME280;63165;43.016;25.784;2023-06-26T11:19:28;99626.63;;;28.44;68.76
9523;BME280;63165;43.016;25.784;2023-06-26T11:21:58;99623.00;;;28.63;68.76
9523;BME280;63165;43.016;25.784;2023-06-26T11:24:26;99634.72;;;28.72;68.61
9523;BME280;63165;43.016;25.784;2023-06-26T11:26:54;99631.63;;;28.67;68.87
9523;BME280;63165;43.016;25.784;2023-06-26T11:29:27;99621.78;;;28.75;68.88
9523;BME280;63165;43.016;25.784;2023-06-26T11:31:58;99623.84;;;28.81;68.87
9523;BME280;63165;43.016;25.784;2023-06-26T11:34:25;99621.84;;;28.83;68.59
9523;BME280;63165;43.016;25.784;2023-06-26T11:36:56;99617.63;;;28.81;68.33
9523;BME280;63165;43.016;25.784;2023-06-26T11:39:23;99618.94;;;28.77;68.07
9523;BME280;63165;43.016;25.784;2023-06-26T11:41:50;99616.56;;;28.74;68.10
9523;BME280;63165;43.016;25.784;2023-06-26T11:44:17;99621.00;;;28.65;66.82
9523;BME280;63165;43.016;25.784;2023-06-26T11:46:47;99617.09;;;28.50;68.26
9523;BME280;63165;43.016;25.784;2023-06-26T11:49:15;99614.03;;;28.44;68.67
9523;BME280;63165;43.016;25.784;2023-06-26T11:51:43;99617.09;;;28.50;68.39
9523;BME280;63165;43.016;25.784;2023-06-26T11:54:10;99617.41;;;28.56;68.18
9523;BME280;63165;43.016;25.784;2023-06-26T11:56:37;99612.78;;;28.67;68.11
9523;BME280;63165;43.016;25.784;2023-06-26T11:59:05;99620.09;;;28.74;67.68
9523;BME280;63165;43.016;25.784;2023-06-26T12:01:32;99607.41;;;28.84;67.63
9523;BME280;63165;43.016;25.784;2023-06-26T12:04:02;99601.78;;;28.96;67.52
9523;BME280;63165;43.016;25.784;2023-06-26T12:06:29;99598.84;;;29.07;67.35
9523;BME280;63165;43.016;25.784;2023-06-26T12:08:57;99605.88;;;29.18;67.03
9523;BME280;63165;43.016;25.784;2023-06-26T12:11:26;99603.75;;;29.30;66.49
9523;BME280;63165;43.016;25.784;2023-06-26T12:13:54;99600.81;;;29.41;66.83
9523;BME280;63165;43.016;25.784;2023-06-26T12:16:21;99596.81;;;29.53;66.57
9523;BME280;63165;43.016;25.784;2023-06-26T12:18:48;99594.88;;;29.64;66.20
9523;BME280;63165;43.016;25.784;2023-06-26T12:24:02;99603.34;;;29.95;66.18
9523;BME280;63165;43.016;25.784;2023-06-26T12:26:29;99600.66;;;30.03;65.95
9523;BME280;63165;43.016;25.784;2023-06-26T12:29:01;99603.38;;;30.11;65.88
9523;BME280;63165;43.016;25.784;2023-06-26T12:31:28;99596.16;;;30.20;65.33
9523;BME280;63165;43.016;25.784;2023-06-26T12:33:56;99595.22;;;30.37;65.28
9523;BME280;63165;43.016;25.784;2023-06-26T12:36:23;99598.84;;;30.54;65.08
9523;BME280;63165;43.016;25.784;2023-06-26T12:38:52;99594.28;;;30.63;64.58
9523;BME280;63165;43.016;25.784;2023-06-26T12:41:23;99592.59;;;30.70;64.42
9523;BME280;63165;43.016;25.784;2023-06-26T12:43:55;99597.00;;;30.88;64.39
9523;BME280;63165;43.016;25.784;2023-06-26T12:46:32;99603.78;;;31.00;63.76
9523;BME280;63165;43.016;25.784;2023-06-26T12:49:00;99599.38;;;30.99;63.14
9523;BME280;63165;43.016;25.784;2023-06-26T12:51:28;99626.19;;;30.84;60.70
9523;BME280;63165;43.016;25.784;2023-06-26T12:53:55;99624.66;;;30.65;54.61
9523;BME280;63165;43.016;25.784;2023-06-26T12:56:24;99632.28;;;30.27;54.01
9523;BME280;63165;43.016;25.784;2023-06-26T12:58:52;99634.00;;;29.94;55.23
9523;BME280;63165;43.016;25.784;2023-06-26T13:01:19;99626.72;;;29.42;56.94
9523;BME280;63165;43.016;25.784;2023-06-26T13:03:50;99659.47;;;29.11;59.04
9523;BME280;63165;43.016;25.784;2023-06-26T13:06:17;99565.47;;;27.53;61.43